Terminal Aerodrome Forecast
Issued by NWS

Home | Current Version | Previous Version | Graphics & Text | Print | Product List | Glossary On
Versions: 1 2 3 4 5 6 7 8 9 10 11 12 13 14 15 16 17 18 19 20
000
FTUS43 KMPX 231700
TAFAXN
TAF
KAXN 231739Z 2318/2418 36012KT 6SM -SHSN BR OVC006
     FM240000 34011KT 4SM BR OVC005
     FM241200 33009KT 6SM BR OVC007=

USA.gov is the U.S. government's official web portal to all federal, state and local government web resources and services.